Temp: 17.4°C   Baro: 1024.0mb
  Wind: 0.9mph   Dir: NNW (337°)
  Rain: 7.0mm (0.0mm/hr)
  Solar: 93W/m2  Hum: 65%

Historic data

Bath Spa Weather Station Historical Data
Daily Summary for August 06, 2022 Units:  Both    English   Metric
Daily Weekly Monthly Yearly Custom
  High: Low: Average:
Temperature: 76.6 °F /  24.8 °C 47.1 °F /  8.4 °C 62.1 °F /  16.7 °C
Dew Point: 55 °F /  12.8 °C 42.4 °F /  5.8 °C 49.1 °F /  9.5 °C
Humidity: 84% 40.6% 64%
Wind Speed: 7.4mph /  11.9km/h - 2.2mph /  3.5km/h
Wind Gust: 13mph /  20.9km/h - -
Wind- - SW
Pressure: 30.44 in /  1030.7 hPa 30.35 in /  1027.7 hPa -
Precipitation: 0.00 in /  0 mm    
Historical Graphs
 
 
Tabular Data for August 06, 2022
Time Temperature Dew Point Pressure Wind Wind Speed Wind Gust Humidity Rainfall Rate (Hourly) solar
00:09 58.2 °F /  14.6 °C 47.7 °F /  8.7 °C 30.38in /  1028.7hPa North 1.4mph /  2.3km/h 6mph /  9.7km/h 68% 0.00in /  0mm 0 W/m2
00:14 57.9 °F /  14.4 °C 47.5 °F /  8.6 °C 30.38in /  1028.7hPa North 1.8mph /  2.9km/h 6mph /  9.7km/h 68% 0.00in /  0mm 0 W/m2
00:19 57.9 °F /  14.4 °C 47.6 °F /  8.7 °C 30.38in /  1028.7hPa North 1mph /  1.6km/h 5mph /  8km/h 68.2% 0.00in /  0mm 0 W/m2
00:24 57.8 °F /  14.3 °C 47.4 °F /  8.6 °C 30.39in /  1029hPa NNE 2mph /  3.2km/h 5mph /  8km/h 68% 0.00in /  0mm 0 W/m2
00:29 57.7 °F /  14.3 °C 47.3 °F /  8.5 °C 30.39in /  1029hPa NE 2.5mph /  4km/h 9mph /  14.5km/h 68% 0.00in /  0mm 0 W/m2
00:34 57.7 °F /  14.3 °C 47.3 °F /  8.5 °C 30.39in /  1029hPa NNE 3mph /  4.8km/h 6mph /  9.7km/h 68% 0.00in /  0mm 0 W/m2
00:39 57.7 °F /  14.3 °C 47.3 °F /  8.5 °C 30.39in /  1029hPa NE 2.5mph /  4km/h 7mph /  11.3km/h 68% 0.00in /  0mm 0 W/m2
00:44 57.7 °F /  14.3 °C 47.3 °F /  8.5 °C 30.39in /  1029hPa NNE 1.9mph /  3.1km/h 6mph /  9.7km/h 68% 0.00in /  0mm 0 W/m2
00:49 57.6 °F /  14.2 °C 47.2 °F /  8.4 °C 30.39in /  1029hPa NNE 0.2mph /  0.3km/h 2mph /  3.2km/h 68% 0.00in /  0mm 0 W/m2
00:54 57.4 °F /  14.1 °C 46.9 °F /  8.3 °C 30.39in /  1029hPa NNE 0.9mph /  1.4km/h 3mph /  4.8km/h 68% 0.00in /  0mm 0 W/m2
00:59 57.2 °F /  14 °C 46.8 °F /  8.2 °C 30.39in /  1029hPa NNE 0.4mph /  0.6km/h 3mph /  4.8km/h 68% 0.00in /  0mm 0 W/m2
01:03 56.9 °F /  13.8 °C 46.7 °F /  8.2 °C 30.39in /  1029hPa NNE 0.5mph /  0.8km/h 2mph /  3.2km/h 68.5% 0.00in /  0mm 0 W/m2
01:09 56.7 °F /  13.7 °C 46.6 °F /  8.1 °C 30.39in /  1029hPa NNE 0.5mph /  0.8km/h 2mph /  3.2km/h 69% 0.00in /  0mm 0 W/m2
01:14 56.5 °F /  13.6 °C 46.6 °F /  8.1 °C 30.39in /  1029hPa NNE 0.8mph /  1.3km/h 3mph /  4.8km/h 69.4% 0.00in /  0mm 0 W/m2
01:19 56.1 °F /  13.4 °C 46.4 °F /  8 °C 30.39in /  1029hPa NNE 1.1mph /  1.8km/h 3mph /  4.8km/h 70% 0.00in /  0mm 0 W/m2
01:24 55.8 °F /  13.2 °C 46.8 °F /  8.2 °C 30.39in /  1029hPa NNE 0.9mph /  1.4km/h 3mph /  4.8km/h 71.4% 0.00in /  0mm 0 W/m2
01:29 55.6 °F /  13.1 °C 46.9 °F /  8.3 °C 30.40in /  1029.3hPa NNE 0.9mph /  1.4km/h 3mph /  4.8km/h 72.4% 0.00in /  0mm 0 W/m2
01:34 55.2 °F /  12.9 °C 46.8 °F /  8.2 °C 30.40in /  1029.3hPa NNE 0.4mph /  0.6km/h 2mph /  3.2km/h 73% 0.00in /  0mm 0 W/m2
01:39 55 °F /  12.8 °C 46.9 °F /  8.3 °C 30.40in /  1029.3hPa NNE 0.4mph /  0.6km/h 2mph /  3.2km/h 74% 0.00in /  0mm 0 W/m2
01:44 54.9 °F /  12.7 °C 46.9 °F /  8.3 °C 30.40in /  1029.3hPa NNE 0.5mph /  0.8km/h 2mph /  3.2km/h 74.6% 0.00in /  0mm 0 W/m2
01:49 54.6 °F /  12.6 °C 46.8 °F /  8.2 °C 30.40in /  1029.3hPa NNE 1.6mph /  2.6km/h 3mph /  4.8km/h 75% 0.00in /  0mm 0 W/m2
01:54 54.2 °F /  12.3 °C 46.7 °F /  8.2 °C 30.40in /  1029.3hPa NNE 0.9mph /  1.4km/h 2mph /  3.2km/h 75.6% 0.00in /  0mm 0 W/m2
01:59 54.1 °F /  12.3 °C 46.7 °F /  8.2 °C 30.40in /  1029.3hPa NNE 0.8mph /  1.3km/h 2mph /  3.2km/h 76% 0.00in /  0mm 0 W/m2
02:04 54 °F /  12.2 °C 46.6 °F /  8.1 °C 30.40in /  1029.3hPa NNE 0.2mph /  0.3km/h 1mph /  1.6km/h 76% 0.00in /  0mm 0 W/m2
02:08 53.8 °F /  12.1 °C 46.6 °F /  8.1 °C 30.40in /  1029.3hPa NNE 0.2mph /  0.3km/h 1mph /  1.6km/h 76.5% 0.00in /  0mm 0 W/m2
02:14 53.5 °F /  11.9 °C 46.5 °F /  8.1 °C 30.40in /  1029.3hPa Calm   1mph /  1.6km/h 77% 0.00in /  0mm 0 W/m2
02:19 53.4 °F /  11.9 °C 46.4 °F /  8 °C 30.40in /  1029.3hPa Calm   1mph /  1.6km/h 77% 0.00in /  0mm 0 W/m2
02:24 53.3 °F /  11.8 °C 46.3 °F /  7.9 °C 30.40in /  1029.3hPa NNE 0.8mph /  1.3km/h 2mph /  3.2km/h 77% 0.00in /  0mm 0 W/m2
02:29 53.2 °F /  11.8 °C 46.2 °F /  7.9 °C 30.40in /  1029.3hPa Calm   1mph /  1.6km/h 77% 0.00in /  0mm 0 W/m2
02:34 53.1 °F /  11.7 °C 46 °F /  7.8 °C 30.40in /  1029.3hPa Calm   1mph /  1.6km/h 77% 0.00in /  0mm 0 W/m2
02:39 53 °F /  11.7 °C 45.9 °F /  7.7 °C 30.40in /  1029.3hPa Calm   1mph /  1.6km/h 77% 0.00in /  0mm 0 W/m2
02:44 52.9 °F /  11.6 °C 45.9 °F /  7.7 °C 30.40in /  1029.3hPa Calm   1mph /  1.6km/h 77% 0.00in /  0mm 0 W/m2
02:49 52.7 °F /  11.5 °C 45.7 °F /  7.6 °C 30.40in /  1029.3hPa Calm     77% 0.00in /  0mm 0 W/m2
02:54 52.5 °F /  11.4 °C 45.5 °F /  7.5 °C 30.40in /  1029.3hPa Calm   1mph /  1.6km/h 77% 0.00in /  0mm 0 W/m2
02:59 52.5 °F /  11.4 °C 45.5 °F /  7.5 °C 30.40in /  1029.3hPa Calm     77% 0.00in /  0mm 0 W/m2
03:04 52.3 °F /  11.3 °C 45.4 °F /  7.4 °C 30.40in /  1029.3hPa Calm     77.2% 0.00in /  0mm 0 W/m2
03:09 52.2 °F /  11.2 °C 45.6 °F /  7.6 °C 30.40in /  1029.3hPa Calm     78% 0.00in /  0mm 0 W/m2
03:14 52 °F /  11.1 °C 45.3 °F /  7.4 °C 30.40in /  1029.3hPa Calm     77.8% 0.00in /  0mm 0 W/m2
03:19 51.6 °F /  10.9 °C 45 °F /  7.2 °C 30.40in /  1029.3hPa Calm     78% 0.00in /  0mm 0 W/m2
03:24 51.6 °F /  10.9 °C 45 °F /  7.2 °C 30.40in /  1029.3hPa Calm     78% 0.00in /  0mm 0 W/m2
03:29 51.4 °F /  10.8 °C 44.8 °F /  7.1 °C 30.40in /  1029.3hPa Calm     78% 0.00in /  0mm 0 W/m2
03:34 51.6 °F /  10.9 °C 45 °F /  7.2 °C 30.40in /  1029.3hPa Calm     78% 0.00in /  0mm 0 W/m2
03:39 51.4 °F /  10.8 °C 44.8 °F /  7.1 °C 30.40in /  1029.3hPa Calm     78% 0.00in /  0mm 0 W/m2
03:44 51.1 °F /  10.6 °C 44.4 °F /  6.9 °C 30.40in /  1029.3hPa Calm     78% 0.00in /  0mm 0 W/m2
03:49 50.8 °F /  10.4 °C 44.1 °F /  6.7 °C 30.40in /  1029.3hPa Calm     78% 0.00in /  0mm 0 W/m2
03:54 50.7 °F /  10.4 °C 44.1 °F /  6.7 °C 30.41in /  1029.7hPa Calm     78% 0.00in /  0mm 0 W/m2
03:59 50.5 °F /  10.3 °C 43.9 °F /  6.6 °C 30.41in /  1029.7hPa Calm     78% 0.00in /  0mm 0 W/m2
04:04 50.4 °F /  10.2 °C 43.7 °F /  6.5 °C 30.41in /  1029.7hPa Calm     78% 0.00in /  0mm 0 W/m2
04:09 50.3 °F /  10.2 °C 43.6 °F /  6.4 °C 30.41in /  1029.7hPa Calm     78% 0.00in /  0mm 0 W/m2
04:14 50.1 °F /  10.1 °C 43.5 °F /  6.4 °C 30.41in /  1029.7hPa Calm     78.2% 0.00in /  0mm 0 W/m2
04:19 49.8 °F /  9.9 °C 43.5 °F /  6.4 °C 30.41in /  1029.7hPa Calm     79% 0.00in /  0mm 0 W/m2
04:24 49.6 °F /  9.8 °C 43.3 °F /  6.3 °C 30.41in /  1029.7hPa Calm     79% 0.00in /  0mm 0 W/m2
04:29 49.6 °F /  9.8 °C 43.3 °F /  6.3 °C 30.41in /  1029.7hPa Calm     79% 0.00in /  0mm 0 W/m2
04:34 49.5 °F /  9.7 °C 43.6 °F /  6.4 °C 30.41in /  1029.7hPa Calm     80% 0.00in /  0mm 0 W/m2
04:39 49.4 °F /  9.7 °C 43.4 °F /  6.3 °C 30.41in /  1029.7hPa Calm     80% 0.00in /  0mm 0 W/m2
04:44 49.1 °F /  9.5 °C 43.2 °F /  6.2 °C 30.41in /  1029.7hPa Calm     80% 0.00in /  0mm 0 W/m2
04:49 48.8 °F /  9.3 °C 43 °F /  6.1 °C 30.41in /  1029.7hPa Calm     80.2% 0.00in /  0mm 0 W/m2
04:54 48.7 °F /  9.3 °C 43 °F /  6.1 °C 30.41in /  1029.7hPa Calm     80.4% 0.00in /  0mm 0 W/m2
04:59 48.6 °F /  9.2 °C 43.1 °F /  6.2 °C 30.41in /  1029.7hPa Calm     81% 0.00in /  0mm 0 W/m2
05:04 48.6 °F /  9.2 °C 43 °F /  6.1 °C 30.41in /  1029.7hPa Calm     81% 0.00in /  0mm 0 W/m2
05:09 48.6 °F /  9.2 °C 43 °F /  6.1 °C 30.41in /  1029.7hPa Calm     81% 0.00in /  0mm 0 W/m2
05:14 48.4 °F /  9.1 °C 42.8 °F /  6 °C 30.41in /  1029.7hPa Calm     81% 0.00in /  0mm 0 W/m2
05:19 48.4 °F /  9.1 °C 43 °F /  6.1 °C 30.41in /  1029.7hPa Calm     81.4% 0.00in /  0mm 0 W/m2
05:24 48.1 °F /  8.9 °C 42.7 °F /  5.9 °C 30.41in /  1029.7hPa Calm     81.6% 0.00in /  0mm 0 W/m2
05:29 48 °F /  8.9 °C 42.8 °F /  6 °C 30.41in /  1029.7hPa Calm     82% 0.00in /  0mm 0 W/m2
05:34 48 °F /  8.9 °C 42.8 °F /  6 °C 30.41in /  1029.7hPa Calm     82% 0.00in /  0mm 0 W/m2
05:39 47.8 °F /  8.8 °C 42.6 °F /  5.9 °C 30.41in /  1029.7hPa Calm     82% 0.00in /  0mm 0 W/m2
05:44 47.7 °F /  8.7 °C 42.6 °F /  5.9 °C 30.42in /  1030hPa Calm     82.4% 0.00in /  0mm 5 W/m2
05:49 47.7 °F /  8.7 °C 42.8 °F /  6 °C 30.42in /  1030hPa Calm     83% 0.00in /  0mm 7 W/m2
05:54 47.7 °F /  8.7 °C 42.8 °F /  6 °C 30.42in /  1030hPa Calm     83% 0.00in /  0mm 7 W/m2
05:59 47.6 °F /  8.7 °C 42.7 °F /  5.9 °C 30.42in /  1030hPa Calm     83% 0.00in /  0mm 9 W/m2
06:04 47.5 °F /  8.6 °C 42.6 °F /  5.9 °C 30.42in /  1030hPa Calm     83% 0.00in /  0mm 12 W/m2
06:09 47.3 °F /  8.5 °C 42.4 °F /  5.8 °C 30.42in /  1030hPa Calm     83% 0.00in /  0mm 14 W/m2
06:14 47.2 °F /  8.4 °C 42.5 °F /  5.8 °C 30.42in /  1030hPa Calm     83.4% 0.00in /  0mm 16 W/m2
06:19 47.1 °F /  8.4 °C 42.6 °F /  5.9 °C 30.42in /  1030hPa Calm     84% 0.00in /  0mm 18 W/m2
06:24 47.1 °F /  8.4 °C 42.6 °F /  5.9 °C 30.42in /  1030hPa Calm     84% 0.00in /  0mm 18 W/m2
06:29 47.1 °F /  8.4 °C 42.6 °F /  5.9 °C 30.42in /  1030hPa Calm     84% 0.00in /  0mm 19 W/m2
06:34 47.1 °F /  8.4 °C 42.6 °F /  5.9 °C 30.43in /  1030.4hPa Calm     84% 0.00in /  0mm 23 W/m2
06:39 47.2 °F /  8.4 °C 42.7 °F /  5.9 °C 30.43in /  1030.4hPa Calm     84% 0.00in /  0mm 25 W/m2
06:44 47.3 °F /  8.5 °C 42.8 °F /  6 °C 30.43in /  1030.4hPa Calm     84% 0.00in /  0mm 26 W/m2
06:49 47.5 °F /  8.6 °C 42.8 °F /  6 °C 30.43in /  1030.4hPa Calm     84% 0.00in /  0mm 28 W/m2
06:54 47.5 °F /  8.6 °C 42.8 °F /  6 °C 30.43in /  1030.4hPa Calm     84% 0.00in /  0mm 32 W/m2
06:59 47.7 °F /  8.7 °C 43 °F /  6.1 °C 30.43in /  1030.4hPa Calm     84% 0.00in /  0mm 39 W/m2
07:04 47.9 °F /  8.8 °C 43.3 °F /  6.3 °C 30.43in /  1030.4hPa Calm     84% 0.00in /  0mm 47 W/m2
07:09 48.4 °F /  9.1 °C 43.7 °F /  6.5 °C 30.44in /  1030.7hPa Calm     84% 0.00in /  0mm 60 W/m2
07:14 48.6 °F /  9.2 °C 43.9 °F /  6.6 °C 30.44in /  1030.7hPa Calm     84% 0.00in /  0mm 74 W/m2
07:19 48.7 °F /  9.3 °C 43.9 °F /  6.6 °C 30.43in /  1030.4hPa Calm     83% 0.00in /  0mm 90 W/m2
07:24 49 °F /  9.4 °C 44.2 °F /  6.8 °C 30.44in /  1030.7hPa Calm     83% 0.00in /  0mm 107 W/m2
07:29 49.4 °F /  9.7 °C 44.5 °F /  6.9 °C 30.44in /  1030.7hPa Calm     83% 0.00in /  0mm 114 W/m2
07:34 49.7 °F /  9.8 °C 44.8 °F /  7.1 °C 30.44in /  1030.7hPa Calm     83% 0.00in /  0mm 109 W/m2
07:39 50.2 °F /  10.1 °C 44.9 °F /  7.2 °C 30.44in /  1030.7hPa Calm     82% 0.00in /  0mm 134 W/m2
07:44 50.4 °F /  10.2 °C 45.2 °F /  7.3 °C 30.44in /  1030.7hPa Calm     82% 0.00in /  0mm 156 W/m2
07:49 50.8 °F /  10.4 °C 45.3 °F /  7.4 °C 30.44in /  1030.7hPa Calm     81.3% 0.00in /  0mm 178 W/m2
07:54 51.2 °F /  10.7 °C 45.7 °F /  7.6 °C 30.44in /  1030.7hPa Calm     81% 0.00in /  0mm 188 W/m2
07:59 51.7 °F /  10.9 °C 45.8 °F /  7.7 °C 30.44in /  1030.7hPa NNE 0.8mph /  1.3km/h 2mph /  3.2km/h 80.2% 0.00in /  0mm 200 W/m2
08:04 52.2 °F /  11.2 °C 45.9 °F /  7.7 °C 30.44in /  1030.7hPa North 1.2mph /  1.9km/h 2mph /  3.2km/h 79% 0.00in /  0mm 218 W/m2
08:09 52.7 °F /  11.5 °C 46 °F /  7.8 °C 30.44in /  1030.7hPa NNW 0.9mph /  1.4km/h 3mph /  4.8km/h 77.8% 0.00in /  0mm 236 W/m2
08:14 53.2 °F /  11.8 °C 46 °F /  7.8 °C 30.44in /  1030.7hPa NNW 1.2mph /  1.9km/h 3mph /  4.8km/h 76.6% 0.00in /  0mm 251 W/m2
08:19 53.4 °F /  11.9 °C 45.9 °F /  7.7 °C 30.44in /  1030.7hPa NNW 0.4mph /  0.6km/h 3mph /  4.8km/h 75.8% 0.00in /  0mm 267 W/m2
08:24 53.8 °F /  12.1 °C 46 °F /  7.8 °C 30.44in /  1030.7hPa NNW 1mph /  1.6km/h 3mph /  4.8km/h 75% 0.00in /  0mm 279 W/m2
08:29 54.4 °F /  12.4 °C 46.5 °F /  8.1 °C 30.44in /  1030.7hPa NNW 0.4mph /  0.6km/h 2mph /  3.2km/h 74.4% 0.00in /  0mm 301 W/m2
08:34 55.1 °F /  12.8 °C 46.8 °F /  8.2 °C 30.44in /  1030.7hPa NNW 1.1mph /  1.8km/h 3mph /  4.8km/h 73.2% 0.00in /  0mm 318 W/m2
08:39 55.5 °F /  13.1 °C 46.8 °F /  8.2 °C 30.44in /  1030.7hPa NW 1.3mph /  2.1km/h 3mph /  4.8km/h 72.2% 0.00in /  0mm 332 W/m2
08:44 56.1 °F /  13.4 °C 47.3 °F /  8.5 °C 30.44in /  1030.7hPa NW 0.9mph /  1.4km/h 3mph /  4.8km/h 72% 0.00in /  0mm 352 W/m2
08:49 56.8 °F /  13.8 °C 47.6 °F /  8.7 °C 30.44in /  1030.7hPa NW 1.4mph /  2.3km/h 3mph /  4.8km/h 71.6% 0.00in /  0mm 367 W/m2
08:54 57.1 °F /  13.9 °C 47.8 °F /  8.8 °C 30.44in /  1030.7hPa NW 1mph /  1.6km/h 3mph /  4.8km/h 71% 0.00in /  0mm 380 W/m2
08:59 57.6 °F /  14.2 °C 48.2 °F /  9 °C 30.44in /  1030.7hPa NW 1mph /  1.6km/h 3mph /  4.8km/h 71% 0.00in /  0mm 394 W/m2
09:04 58.3 °F /  14.6 °C 48.7 °F /  9.3 °C 30.44in /  1030.7hPa NW 1.6mph /  2.6km/h 4mph /  6.4km/h 70.4% 0.00in /  0mm 406 W/m2
09:09 58.8 °F /  14.9 °C 49.1 °F /  9.5 °C 30.44in /  1030.7hPa NW 0.9mph /  1.4km/h 4mph /  6.4km/h 70% 0.00in /  0mm 418 W/m2
09:14 59.4 °F /  15.2 °C 49.7 °F /  9.8 °C 30.44in /  1030.7hPa NW 0.8mph /  1.3km/h 2mph /  3.2km/h 70% 0.00in /  0mm 436 W/m2
09:19 60.1 °F /  15.6 °C 49.8 °F /  9.9 °C 30.44in /  1030.7hPa WSW 1.7mph /  2.7km/h 4mph /  6.4km/h 69% 0.00in /  0mm 448 W/m2
09:24 60.4 °F /  15.8 °C 49.8 °F /  9.9 °C 30.44in /  1030.7hPa WSW 1.6mph /  2.6km/h 3mph /  4.8km/h 68.2% 0.00in /  0mm 461 W/m2
09:29 61 °F /  16.1 °C 50.4 °F /  10.2 °C 30.44in /  1030.7hPa WSW 1.1mph /  1.8km/h 4mph /  6.4km/h 68% 0.00in /  0mm 476 W/m2
09:34 61.7 °F /  16.5 °C 50.6 °F /  10.3 °C 30.44in /  1030.7hPa WNW 2.8mph /  4.5km/h 6mph /  9.7km/h 67% 0.00in /  0mm 487 W/m2
09:39 61.3 °F /  16.3 °C 49.8 °F /  9.9 °C 30.44in /  1030.7hPa SSE 3.4mph /  5.5km/h 6mph /  9.7km/h 66% 0.00in /  0mm 499 W/m2
09:44 61.1 °F /  16.2 °C 50.3 °F /  10.2 °C 30.44in /  1030.7hPa SE 3.7mph /  6km/h 6mph /  9.7km/h 67.6% 0.00in /  0mm 512 W/m2
09:49 61.7 °F /  16.5 °C 51 °F /  10.6 °C 30.44in /  1030.7hPa SE 2.7mph /  4.3km/h 6mph /  9.7km/h 67.8% 0.00in /  0mm 526 W/m2
09:54 62.4 °F /  16.9 °C 51.2 °F /  10.7 °C 30.44in /  1030.7hPa SSE 2.5mph /  4km/h 7mph /  11.3km/h 66.6% 0.00in /  0mm 538 W/m2
09:59 62.2 °F /  16.8 °C 50.6 °F /  10.3 °C 30.44in /  1030.7hPa SSE 3.5mph /  5.6km/h 7mph /  11.3km/h 65.6% 0.00in /  0mm 540 W/m2
10:04 62.2 °F /  16.8 °C 50.8 °F /  10.4 °C 30.44in /  1030.7hPa SSE 2.6mph /  4.2km/h 7mph /  11.3km/h 66.2% 0.00in /  0mm 547 W/m2
10:09 62.9 °F /  17.2 °C 51.3 °F /  10.7 °C 30.44in /  1030.7hPa SSE 1.8mph /  2.9km/h 4mph /  6.4km/h 65.8% 0.00in /  0mm 559 W/m2
10:14 63.1 °F /  17.3 °C 50.6 °F /  10.3 °C 30.44in /  1030.7hPa SSE 1.5mph /  2.4km/h 5mph /  8km/h 64% 0.00in /  0mm 578 W/m2
10:19 63.4 °F /  17.4 °C 51 °F /  10.6 °C 30.44in /  1030.7hPa SE 1.2mph /  1.9km/h 3mph /  4.8km/h 64% 0.00in /  0mm 584 W/m2
10:24 64.5 °F /  18.1 °C 51.6 °F /  10.9 °C 30.44in /  1030.7hPa ESE 3.7mph /  6km/h 10mph /  16.1km/h 63% 0.00in /  0mm 587 W/m2
10:29 65.6 °F /  18.7 °C 51.9 °F /  11.1 °C 30.44in /  1030.7hPa NE 4.5mph /  7.2km/h 12mph /  19.3km/h 61.2% 0.00in /  0mm 612 W/m2
10:34 66.3 °F /  19.1 °C 51.6 °F /  10.9 °C 30.44in /  1030.7hPa NNE 2.7mph /  4.3km/h 8mph /  12.9km/h 59% 0.00in /  0mm 656 W/m2
10:39 65.9 °F /  18.8 °C 50.8 °F /  10.4 °C 30.44in /  1030.7hPa WNW 2.2mph /  3.5km/h 4mph /  6.4km/h 58% 0.00in /  0mm 696 W/m2
10:44 65.8 °F /  18.8 °C 51.1 °F /  10.6 °C 30.44in /  1030.7hPa West 3.1mph /  5km/h 6mph /  9.7km/h 59.2% 0.00in /  0mm 714 W/m2
10:49 65.4 °F /  18.6 °C 51.4 °F /  10.8 °C 30.44in /  1030.7hPa WSW 4.8mph /  7.7km/h 8mph /  12.9km/h 60.6% 0.00in /  0mm 708 W/m2
10:54 65.5 °F /  18.6 °C 51.4 °F /  10.8 °C 30.44in /  1030.7hPa WNW 3.7mph /  6km/h 6mph /  9.7km/h 60.6% 0.00in /  0mm 686 W/m2
10:59 65.5 °F /  18.6 °C 51.3 °F /  10.7 °C 30.44in /  1030.7hPa West 2.4mph /  3.9km/h 6mph /  9.7km/h 60% 0.00in /  0mm 675 W/m2
11:04 65.6 °F /  18.7 °C 50.8 °F /  10.4 °C 30.44in /  1030.7hPa WNW 4.1mph /  6.6km/h 7mph /  11.3km/h 58.8% 0.00in /  0mm 726 W/m2
11:09 65.7 °F /  18.7 °C 50.2 °F /  10.1 °C 30.44in /  1030.7hPa NW 4.4mph /  7.1km/h 8mph /  12.9km/h 57.6% 0.00in /  0mm 714 W/m2
11:14 65.8 °F /  18.8 °C 50 °F /  10 °C 30.44in /  1030.7hPa NW 2.4mph /  3.9km/h 8mph /  12.9km/h 56.8% 0.00in /  0mm 747 W/m2
11:19 66.1 °F /  18.9 °C 49.4 °F /  9.7 °C 30.44in /  1030.7hPa NW 3.8mph /  6.1km/h 9mph /  14.5km/h 54.8% 0.00in /  0mm 751 W/m2
11:24 66 °F /  18.9 °C 49.5 °F /  9.7 °C 30.44in /  1030.7hPa NNW 1.9mph /  3.1km/h 6mph /  9.7km/h 55% 0.00in /  0mm 714 W/m2
11:29 66.2 °F /  19 °C 49.4 °F /  9.7 °C 30.44in /  1030.7hPa North 4.2mph /  6.8km/h 8mph /  12.9km/h 54.6% 0.00in /  0mm 744 W/m2
11:34 66.5 °F /  19.2 °C 49.2 °F /  9.6 °C 30.44in /  1030.7hPa NW 5.2mph /  8.4km/h 11mph /  17.7km/h 53.8% 0.00in /  0mm 752 W/m2
11:39 66.5 °F /  19.2 °C 49.3 °F /  9.6 °C 30.44in /  1030.7hPa NNW 3.3mph /  5.3km/h 9mph /  14.5km/h 53.8% 0.00in /  0mm 717 W/m2
11:44 66.9 °F /  19.4 °C 48.9 °F /  9.4 °C 30.44in /  1030.7hPa NW 5.8mph /  9.3km/h 12mph /  19.3km/h 52.4% 0.00in /  0mm 735 W/m2
11:49 66.6 °F /  19.2 °C 48.4 °F /  9.1 °C 30.44in /  1030.7hPa NNW 5.3mph /  8.5km/h 12mph /  19.3km/h 52% 0.00in /  0mm 729 W/m2
11:54 66.8 °F /  19.3 °C 48.4 °F /  9.1 °C 30.43in /  1030.4hPa NW 5.2mph /  8.4km/h 10mph /  16.1km/h 51.6% 0.00in /  0mm 731 W/m2
11:59 66.8 °F /  19.3 °C 48.2 °F /  9 °C 30.43in /  1030.4hPa NNW 6.6mph /  10.6km/h 10mph /  16.1km/h 51.2% 0.00in /  0mm 742 W/m2
12:04 66.7 °F /  19.3 °C 48 °F /  8.9 °C 30.43in /  1030.4hPa NNW 5mph /  8km/h 9mph /  14.5km/h 51% 0.00in /  0mm 761 W/m2
12:09 67.1 °F /  19.5 °C 48.2 °F /  9 °C 30.43in /  1030.4hPa NW 5.6mph /  9km/h 10mph /  16.1km/h 50.8% 0.00in /  0mm 765 W/m2
12:14 67.4 °F /  19.7 °C 48.3 °F /  9.1 °C 30.43in /  1030.4hPa North 4mph /  6.4km/h 9mph /  14.5km/h 50.2% 0.00in /  0mm 765 W/m2
12:19 67.7 °F /  19.8 °C 48.5 °F /  9.2 °C 30.43in /  1030.4hPa NNW 5mph /  8km/h 8mph /  12.9km/h 50% 0.00in /  0mm 765 W/m2
12:24 68.5 °F /  20.3 °C 48.5 °F /  9.2 °C 30.43in /  1030.4hPa North 1.7mph /  2.7km/h 7mph /  11.3km/h 48.8% 0.00in /  0mm 775 W/m2
12:29 69.8 °F /  21 °C 49.6 °F /  9.8 °C 30.43in /  1030.4hPa ENE 5.7mph /  9.2km/h 11mph /  17.7km/h 48.6% 0.00in /  0mm 775 W/m2
12:34 70.6 °F /  21.4 °C 48.9 °F /  9.4 °C 30.43in /  1030.4hPa NE 6.7mph /  10.8km/h 11mph /  17.7km/h 46.2% 0.00in /  0mm 782 W/m2
12:39 71.2 °F /  21.8 °C 48.8 °F /  9.3 °C 30.43in /  1030.4hPa NNE 2.6mph /  4.2km/h 10mph /  16.1km/h 45.2% 0.00in /  0mm 784 W/m2
12:44 69.7 °F /  20.9 °C 48.4 °F /  9.1 °C 30.43in /  1030.4hPa NNW 6.4mph /  10.3km/h 12mph /  19.3km/h 46.8% 0.00in /  0mm 786 W/m2
12:49 68.7 °F /  20.4 °C 48.6 °F /  9.2 °C 30.42in /  1030hPa WNW 4.5mph /  7.2km/h 9mph /  14.5km/h 48.8% 0.00in /  0mm 788 W/m2
12:54 69.1 °F /  20.6 °C 49.1 °F /  9.5 °C 30.42in /  1030hPa NNE 4.3mph /  6.9km/h 9mph /  14.5km/h 49% 0.00in /  0mm 788 W/m2
12:59 70.1 °F /  21.2 °C 49.3 °F /  9.6 °C 30.42in /  1030hPa NE 4.4mph /  7.1km/h 7mph /  11.3km/h 47.6% 0.00in /  0mm 796 W/m2
13:04 71.4 °F /  21.9 °C 49.8 °F /  9.9 °C 30.42in /  1030hPa NE 3.5mph /  5.6km/h 8mph /  12.9km/h 46.4% 0.00in /  0mm 798 W/m2
13:09 72 °F /  22.2 °C 49.9 °F /  9.9 °C 30.42in /  1030hPa NNW 5mph /  8km/h 10mph /  16.1km/h 45.8% 0.00in /  0mm 800 W/m2
13:14 70.7 °F /  21.5 °C 49.4 °F /  9.7 °C 30.42in /  1030hPa North 4.8mph /  7.7km/h 12mph /  19.3km/h 46.8% 0.00in /  0mm 800 W/m2
13:19 71 °F /  21.7 °C 49.8 °F /  9.9 °C 30.42in /  1030hPa North 2.6mph /  4.2km/h 4mph /  6.4km/h 47% 0.00in /  0mm 805 W/m2
13:24 71.1 °F /  21.7 °C 50 °F /  10 °C 30.42in /  1030hPa North 3.3mph /  5.3km/h 10mph /  16.1km/h 47.2% 0.00in /  0mm 784 W/m2
13:29 70.9 °F /  21.6 °C 49.5 °F /  9.7 °C 30.42in /  1030hPa NNE 4mph /  6.4km/h 9mph /  14.5km/h 46.8% 0.00in /  0mm 803 W/m2
13:34 70.6 °F /  21.4 °C 49.1 °F /  9.5 °C 30.42in /  1030hPa NNW 6.4mph /  10.3km/h 13mph /  20.9km/h 46.6% 0.00in /  0mm 802 W/m2
13:39 69.8 °F /  21 °C 48.4 °F /  9.1 °C 30.42in /  1030hPa NNE 3.6mph /  5.8km/h 10mph /  16.1km/h 46.6% 0.00in /  0mm 817 W/m2
13:44 70.2 °F /  21.2 °C 49.1 °F /  9.5 °C 30.41in /  1029.7hPa NE 3.8mph /  6.1km/h 11mph /  17.7km/h 47.2% 0.00in /  0mm 807 W/m2
13:49 71.5 °F /  21.9 °C 49.8 °F /  9.9 °C 30.41in /  1029.7hPa North 4.4mph /  7.1km/h 9mph /  14.5km/h 46.2% 0.00in /  0mm 791 W/m2
13:54 71.9 °F /  22.2 °C 49.5 °F /  9.7 °C 30.41in /  1029.7hPa North 4.6mph /  7.4km/h 10mph /  16.1km/h 45.2% 0.00in /  0mm 791 W/m2
13:59 71.1 °F /  21.7 °C 48.5 °F /  9.2 °C 30.41in /  1029.7hPa NNE 5.1mph /  8.2km/h 10mph /  16.1km/h 44.8% 0.00in /  0mm 789 W/m2
14:04 71.7 °F /  22.1 °C 48.9 °F /  9.4 °C 30.41in /  1029.7hPa NE 2.9mph /  4.7km/h 8mph /  12.9km/h 44.4% 0.00in /  0mm 789 W/m2
14:09 72.1 °F /  22.3 °C 48.7 °F /  9.3 °C 30.41in /  1029.7hPa NE 2.4mph /  3.9km/h 8mph /  12.9km/h 43.6% 0.00in /  0mm 791 W/m2
14:14 72.8 °F /  22.7 °C 50 °F /  10 °C 30.41in /  1029.7hPa North 3.6mph /  5.8km/h 11mph /  17.7km/h 44.6% 0.00in /  0mm 784 W/m2
14:19 72 °F /  22.2 °C 49.6 °F /  9.8 °C 30.40in /  1029.3hPa North 7.4mph /  11.9km/h 13mph /  20.9km/h 45.2% 0.00in /  0mm 780 W/m2
14:24 71.2 °F /  21.8 °C 49.2 °F /  9.6 °C 30.41in /  1029.7hPa NNE 2.5mph /  4km/h 13mph /  20.9km/h 45.8% 0.00in /  0mm 784 W/m2
14:29 72.2 °F /  22.3 °C 50.2 °F /  10.1 °C 30.40in /  1029.3hPa NNW 2.8mph /  4.5km/h 8mph /  12.9km/h 45.8% 0.00in /  0mm 780 W/m2
14:34 73.1 °F /  22.8 °C 50.3 °F /  10.2 °C 30.40in /  1029.3hPa WSW 0.7mph /  1.1km/h 3mph /  4.8km/h 44.8% 0.00in /  0mm 768 W/m2
14:39 74.3 °F /  23.5 °C 50.5 °F /  10.3 °C 30.40in /  1029.3hPa ESE 4.8mph /  7.7km/h 8mph /  12.9km/h 43.2% 0.00in /  0mm 772 W/m2
14:44 73.3 °F /  22.9 °C 49.7 °F /  9.8 °C 30.40in /  1029.3hPa South 3.3mph /  5.3km/h 7mph /  11.3km/h 43.4% 0.00in /  0mm 766 W/m2
14:49 73.1 °F /  22.8 °C 50.1 °F /  10.1 °C 30.40in /  1029.3hPa NE 4.4mph /  7.1km/h 8mph /  12.9km/h 44.4% 0.00in /  0mm 758 W/m2
14:54 74.5 °F /  23.6 °C 50.8 °F /  10.4 °C 30.40in /  1029.3hPa NNE 5.8mph /  9.3km/h 10mph /  16.1km/h 43.6% 0.00in /  0mm 754 W/m2
14:59 74.3 °F /  23.5 °C 50 °F /  10 °C 30.40in /  1029.3hPa NE 6mph /  9.7km/h 13mph /  20.9km/h 42.4% 0.00in /  0mm 742 W/m2
15:04 74.7 °F /  23.7 °C 50.3 °F /  10.2 °C 30.40in /  1029.3hPa NE 3.9mph /  6.3km/h 8mph /  12.9km/h 42.4% 0.00in /  0mm 742 W/m2
15:09 74.5 °F /  23.6 °C 49.6 °F /  9.8 °C 30.40in /  1029.3hPa SSE 3.2mph /  5.1km/h 10mph /  16.1km/h 41.5% 0.00in /  0mm 726 W/m2
15:14 73 °F /  22.8 °C 49.6 °F /  9.8 °C 30.39in /  1029hPa WNW 2.6mph /  4.2km/h 6mph /  9.7km/h 43.6% 0.00in /  0mm 719 W/m2
15:19 73.4 °F /  23 °C 50.2 °F /  10.1 °C 30.39in /  1029hPa North 3.3mph /  5.3km/h 8mph /  12.9km/h 44% 0.00in /  0mm 714 W/m2
15:24 73.9 °F /  23.3 °C 50.4 °F /  10.2 °C 30.39in /  1029hPa NE 3.4mph /  5.5km/h 11mph /  17.7km/h 43.6% 0.00in /  0mm 712 W/m2
15:29 74.8 °F /  23.8 °C 50.6 °F /  10.3 °C 30.39in /  1029hPa NE 5.9mph /  9.5km/h 12mph /  19.3km/h 42.6% 0.00in /  0mm 700 W/m2
15:34 74.9 °F /  23.8 °C 50.6 °F /  10.3 °C 30.39in /  1029hPa North 3mph /  4.8km/h 9mph /  14.5km/h 42.4% 0.00in /  0mm 691 W/m2
15:39 74.8 °F /  23.8 °C 50.1 °F /  10.1 °C 30.39in /  1029hPa NNE 1.3mph /  2.1km/h 6mph /  9.7km/h 41.8% 0.00in /  0mm 682 W/m2
15:44 73.9 °F /  23.3 °C 50.3 °F /  10.2 °C 30.38in /  1028.7hPa NNW 5mph /  8km/h 11mph /  17.7km/h 43.6% 0.00in /  0mm 680 W/m2
15:49 73.7 °F /  23.2 °C 50.4 °F /  10.2 °C 30.38in /  1028.7hPa NNW 5.6mph /  9km/h 11mph /  17.7km/h 43.8% 0.00in /  0mm 671 W/m2
15:54 73.7 °F /  23.2 °C 50.7 °F /  10.4 °C 30.38in /  1028.7hPa North 3.9mph /  6.3km/h 11mph /  17.7km/h 44.4% 0.00in /  0mm 663 W/m2
15:59 73.8 °F /  23.2 °C 50.6 °F /  10.3 °C 30.38in /  1028.7hPa North 3.4mph /  5.5km/h 8mph /  12.9km/h 44% 0.00in /  0mm 657 W/m2
16:04 73.9 °F /  23.3 °C 50.1 °F /  10.1 °C 30.38in /  1028.7hPa NW 2.2mph /  3.5km/h 5mph /  8km/h 43.2% 0.00in /  0mm 647 W/m2
16:09 74.3 °F /  23.5 °C 50.8 °F /  10.4 °C 30.38in /  1028.7hPa NNW 3.2mph /  5.1km/h 8mph /  12.9km/h 43.6% 0.00in /  0mm 645 W/m2
16:14 74.7 °F /  23.7 °C 50.2 °F /  10.1 °C 30.37in /  1028.3hPa NW 3.7mph /  6km/h 8mph /  12.9km/h 42.3% 0.00in /  0mm 626 W/m2
16:19 74.4 °F /  23.6 °C 50.3 °F /  10.2 °C 30.37in /  1028.3hPa NNE 3.1mph /  5km/h 9mph /  14.5km/h 42.8% 0.00in /  0mm 613 W/m2
16:24 75.5 °F /  24.2 °C 50.7 °F /  10.4 °C 30.37in /  1028.3hPa ENE 2.4mph /  3.9km/h 7mph /  11.3km/h 41.8% 0.00in /  0mm 603 W/m2
16:29 76.6 °F /  24.8 °C 51.2 °F /  10.7 °C 30.37in /  1028.3hPa NNE 3.1mph /  5km/h 7mph /  11.3km/h 41% 0.00in /  0mm 605 W/m2
16:34 76.5 °F /  24.7 °C 50.9 °F /  10.5 °C 30.37in /  1028.3hPa NNE 2.5mph /  4km/h 10mph /  16.1km/h 40.6% 0.00in /  0mm 596 W/m2
16:39 75.2 °F /  24 °C 50.4 °F /  10.2 °C 30.37in /  1028.3hPa NNW 5.3mph /  8.5km/h 13mph /  20.9km/h 41.8% 0.00in /  0mm 578 W/m2
16:44 73.8 °F /  23.2 °C 49.9 °F /  9.9 °C 30.37in /  1028.3hPa NW 2mph /  3.2km/h 9mph /  14.5km/h 43% 0.00in /  0mm 568 W/m2
16:49 73.9 °F /  23.3 °C 50.2 °F /  10.1 °C 30.37in /  1028.3hPa NNW 4.2mph /  6.8km/h 8mph /  12.9km/h 43.4% 0.00in /  0mm 557 W/m2
16:54 73.7 °F /  23.2 °C 49.9 °F /  9.9 °C 30.37in /  1028.3hPa North 4.6mph /  7.4km/h 10mph /  16.1km/h 43.2% 0.00in /  0mm 563 W/m2
16:59 73.7 °F /  23.2 °C 50.1 °F /  10.1 °C 30.36in /  1028hPa NNW 1.6mph /  2.6km/h 5mph /  8km/h 43.6% 0.00in /  0mm 538 W/m2
17:04 74 °F /  23.3 °C 50.7 °F /  10.4 °C 30.36in /  1028hPa NW 3.8mph /  6.1km/h 10mph /  16.1km/h 44% 0.00in /  0mm 524 W/m2
17:09 73.9 °F /  23.3 °C 50.9 °F /  10.5 °C 30.36in /  1028hPa NNW 4.5mph /  7.2km/h 7mph /  11.3km/h 44.4% 0.00in /  0mm 512 W/m2
17:14 74 °F /  23.3 °C 50.7 °F /  10.4 °C 30.36in /  1028hPa North 2.9mph /  4.7km/h 8mph /  12.9km/h 44% 0.00in /  0mm 504 W/m2
17:19 74.6 °F /  23.7 °C 51.2 °F /  10.7 °C 30.36in /  1028hPa NNW 5.2mph /  8.4km/h 10mph /  16.1km/h 44% 0.00in /  0mm 489 W/m2
17:24 74.5 °F /  23.6 °C 51.1 °F /  10.6 °C 30.36in /  1028hPa NNW 4.2mph /  6.8km/h 7mph /  11.3km/h 44% 0.00in /  0mm 476 W/m2
17:29 74.9 °F /  23.8 °C 51.5 °F /  10.8 °C 30.36in /  1028hPa NNE 3.1mph /  5km/h 7mph /  11.3km/h 44% 0.00in /  0mm 468 W/m2
17:34 75.1 °F /  23.9 °C 51.4 °F /  10.8 °C 30.36in /  1028hPa NW 4.5mph /  7.2km/h 7mph /  11.3km/h 43.6% 0.00in /  0mm 455 W/m2
17:39 74.1 °F /  23.4 °C 50.9 °F /  10.5 °C 30.36in /  1028hPa West 2.6mph /  4.2km/h 6mph /  9.7km/h 44% 0.00in /  0mm 434 W/m2
17:44 74.2 °F /  23.4 °C 51 °F /  10.6 °C 30.36in /  1028hPa North 4.4mph /  7.1km/h 10mph /  16.1km/h 44.2% 0.00in /  0mm 408 W/m2
17:49 74.2 °F /  23.4 °C 50.9 °F /  10.5 °C 30.36in /  1028hPa North 4.5mph /  7.2km/h 8mph /  12.9km/h 44% 0.00in /  0mm 403 W/m2
17:54 74.1 °F /  23.4 °C 50.9 °F /  10.5 °C 30.36in /  1028hPa WNW 1.9mph /  3.1km/h 7mph /  11.3km/h 44% 0.00in /  0mm 378 W/m2
17:59 73.9 °F /  23.3 °C 51.2 °F /  10.7 °C 30.36in /  1028hPa WNW 2.4mph /  3.9km/h 6mph /  9.7km/h 44.8% 0.00in /  0mm 350 W/m2
18:04 74.4 °F /  23.6 °C 52 °F /  11.1 °C 30.36in /  1028hPa West 3.2mph /  5.1km/h 7mph /  11.3km/h 45.6% 0.00in /  0mm 327 W/m2
18:09 73.9 °F /  23.3 °C 52.3 °F /  11.3 °C 30.35in /  1027.7hPa NNW 4.5mph /  7.2km/h 10mph /  16.1km/h 46.8% 0.00in /  0mm 336 W/m2
18:14 72.8 °F /  22.7 °C 52.1 °F /  11.2 °C 30.35in /  1027.7hPa NW 5.2mph /  8.4km/h 10mph /  16.1km/h 48.2% 0.00in /  0mm 297 W/m2
18:19 72.5 °F /  22.5 °C 52 °F /  11.1 °C 30.35in /  1027.7hPa NW 5.2mph /  8.4km/h 10mph /  16.1km/h 48.6% 0.00in /  0mm 313 W/m2
18:24 72.6 °F /  22.6 °C 52.3 °F /  11.3 °C 30.35in /  1027.7hPa NNW 4.8mph /  7.7km/h 8mph /  12.9km/h 49% 0.00in /  0mm 313 W/m2
18:29 72.8 °F /  22.7 °C 51.9 °F /  11.1 °C 30.35in /  1027.7hPa NW 5mph /  8km/h 11mph /  17.7km/h 48% 0.00in /  0mm 301 W/m2
18:34 72.8 °F /  22.7 °C 52 °F /  11.1 °C 30.35in /  1027.7hPa WNW 4.1mph /  6.6km/h 8mph /  12.9km/h 48.2% 0.00in /  0mm 294 W/m2
18:39 73 °F /  22.8 °C 52.2 °F /  11.2 °C 30.35in /  1027.7hPa NNW 3.5mph /  5.6km/h 8mph /  12.9km/h 48% 0.00in /  0mm 279 W/m2
18:44 72.8 °F /  22.7 °C 52 °F /  11.1 °C 30.35in /  1027.7hPa WNW 4.9mph /  7.9km/h 9mph /  14.5km/h 48% 0.00in /  0mm 258 W/m2
18:49 72.2 °F /  22.3 °C 51.7 °F /  10.9 °C 30.35in /  1027.7hPa NW 5mph /  8km/h 9mph /  14.5km/h 48.4% 0.00in /  0mm 248 W/m2
18:54 72.1 °F /  22.3 °C 52 °F /  11.1 °C 30.35in /  1027.7hPa NW 4.9mph /  7.9km/h 9mph /  14.5km/h 49% 0.00in /  0mm 239 W/m2
18:59 72.1 °F /  22.3 °C 51.7 °F /  10.9 °C 30.35in /  1027.7hPa NW 5.3mph /  8.5km/h 7mph /  11.3km/h 48.6% 0.00in /  0mm 216 W/m2
19:04 71.8 °F /  22.1 °C 51.6 °F /  10.9 °C 30.35in /  1027.7hPa NW 4.5mph /  7.2km/h 11mph /  17.7km/h 49% 0.00in /  0mm 200 W/m2
19:09 71.5 °F /  21.9 °C 51.4 °F /  10.8 °C 30.35in /  1027.7hPa NW 6mph /  9.7km/h 11mph /  17.7km/h 49% 0.00in /  0mm 163 W/m2
19:14 71.4 °F /  21.9 °C 51.7 °F /  10.9 °C 30.35in /  1027.7hPa NNW 3.7mph /  6km/h 7mph /  11.3km/h 49.8% 0.00in /  0mm 171 W/m2
19:19 71.8 °F /  22.1 °C 51.9 °F /  11.1 °C 30.35in /  1027.7hPa NW 3.6mph /  5.8km/h 8mph /  12.9km/h 49.4% 0.00in /  0mm 162 W/m2
19:24 72 °F /  22.2 °C 52.8 °F /  11.6 °C 30.35in /  1027.7hPa NW 3.6mph /  5.8km/h 7mph /  11.3km/h 51% 0.00in /  0mm 149 W/m2
19:29 72 °F /  22.2 °C 54 °F /  12.2 °C 30.35in /  1027.7hPa WNW 3.6mph /  5.8km/h 10mph /  16.1km/h 53% 0.00in /  0mm 134 W/m2
19:34 71.3 °F /  21.8 °C 53.8 °F /  12.1 °C 30.35in /  1027.7hPa WNW 4mph /  6.4km/h 10mph /  16.1km/h 53.8% 0.00in /  0mm 121 W/m2
19:39 70.7 °F /  21.5 °C 54 °F /  12.2 °C 30.35in /  1027.7hPa WNW 4.9mph /  7.9km/h 8mph /  12.9km/h 55.4% 0.00in /  0mm 102 W/m2
19:44 70.2 °F /  21.2 °C 54.2 °F /  12.3 °C 30.35in /  1027.7hPa WNW 5.1mph /  8.2km/h 9mph /  14.5km/h 57% 0.00in /  0mm 93 W/m2
19:48 69.8 °F /  21 °C 54.3 °F /  12.4 °C 30.36in /  1028hPa NW 5.3mph /  8.5km/h 10mph /  16.1km/h 58% 0.00in /  0mm 76 W/m2
19:54 69.4 °F /  20.8 °C 54.4 °F /  12.4 °C 30.36in /  1028hPa NW 3.8mph /  6.1km/h 10mph /  16.1km/h 58.8% 0.00in /  0mm 69 W/m2
19:59 69.3 °F /  20.7 °C 54.4 °F /  12.4 °C 30.36in /  1028hPa WNW 5.3mph /  8.5km/h 8mph /  12.9km/h 59% 0.00in /  0mm 63 W/m2
20:04 69.2 °F /  20.7 °C 54.8 °F /  12.7 °C 30.36in /  1028hPa West 3.6mph /  5.8km/h 7mph /  11.3km/h 60% 0.00in /  0mm 54 W/m2
20:09 68.9 °F /  20.5 °C 54.8 °F /  12.7 °C 30.36in /  1028hPa WNW 4.7mph /  7.6km/h 8mph /  12.9km/h 60.8% 0.00in /  0mm 42 W/m2
20:14 68.5 °F /  20.3 °C 54.9 °F /  12.7 °C 30.36in /  1028hPa WNW 3.4mph /  5.5km/h 7mph /  11.3km/h 61.8% 0.00in /  0mm 33 W/m2
20:19 67.9 °F /  19.9 °C 54.8 °F /  12.7 °C 30.36in /  1028hPa WNW 5.2mph /  8.4km/h 9mph /  14.5km/h 62.8% 0.00in /  0mm 21 W/m2
20:24 67.3 °F /  19.6 °C 54.6 °F /  12.6 °C 30.37in /  1028.3hPa WNW 4.1mph /  6.6km/h 7mph /  11.3km/h 63.8% 0.00in /  0mm 12 W/m2
20:29 66.7 °F /  19.3 °C 54.6 °F /  12.6 °C 30.37in /  1028.3hPa West 3.2mph /  5.1km/h 6mph /  9.7km/h 64.8% 0.00in /  0mm 11 W/m2
20:34 66.4 °F /  19.1 °C 54.7 °F /  12.6 °C 30.37in /  1028.3hPa West 4.5mph /  7.2km/h 8mph /  12.9km/h 65.8% 0.00in /  0mm 9 W/m2
20:39 66 °F /  18.9 °C 54.5 °F /  12.5 °C 30.37in /  1028.3hPa West 3.8mph /  6.1km/h 6mph /  9.7km/h 66.6% 0.00in /  0mm 7 W/m2
20:44 65.7 °F /  18.7 °C 54.6 °F /  12.6 °C 30.37in /  1028.3hPa WNW 4.3mph /  6.9km/h 6mph /  9.7km/h 67.4% 0.00in /  0mm 5 W/m2
20:49 65.5 °F /  18.6 °C 54.7 °F /  12.6 °C 30.37in /  1028.3hPa WNW 2.6mph /  4.2km/h 5mph /  8km/h 68% 0.00in /  0mm 5 W/m2
20:54 65.1 °F /  18.4 °C 54.5 °F /  12.5 °C 30.37in /  1028.3hPa West 3.7mph /  6km/h 7mph /  11.3km/h 68.6% 0.00in /  0mm 0 W/m2
20:59 64.9 °F /  18.3 °C 54.6 °F /  12.6 °C 30.37in /  1028.3hPa West 3.3mph /  5.3km/h 6mph /  9.7km/h 69.4% 0.00in /  0mm 0 W/m2
21:04 64.7 °F /  18.2 °C 54.6 °F /  12.6 °C 30.37in /  1028.3hPa WNW 3.8mph /  6.1km/h 6mph /  9.7km/h 70% 0.00in /  0mm 0 W/m2
21:08 64.4 °F /  18 °C 54.8 °F /  12.7 °C 30.38in /  1028.7hPa WNW 3.5mph /  5.6km/h 6mph /  9.7km/h 70.8% 0.00in /  0mm 0 W/m2
21:14 64.1 °F /  17.8 °C 54.8 °F /  12.7 °C 30.38in /  1028.7hPa WNW 3.3mph /  5.3km/h 7mph /  11.3km/h 71.4% 0.00in /  0mm 0 W/m2
21:19 64 °F /  17.8 °C 54.9 °F /  12.7 °C 30.38in /  1028.7hPa WNW 3.7mph /  6km/h 5mph /  8km/h 72% 0.00in /  0mm 0 W/m2
21:24 63.9 °F /  17.7 °C 54.9 °F /  12.7 °C 30.38in /  1028.7hPa WNW 3.5mph /  5.6km/h 6mph /  9.7km/h 72.6% 0.00in /  0mm 0 W/m2
21:29 63.7 °F /  17.6 °C 55 °F /  12.8 °C 30.38in /  1028.7hPa WNW 2.7mph /  4.3km/h 6mph /  9.7km/h 73.2% 0.00in /  0mm 0 W/m2
21:34 63.5 °F /  17.5 °C 55 °F /  12.8 °C 30.38in /  1028.7hPa WNW 2.2mph /  3.5km/h 4mph /  6.4km/h 74% 0.00in /  0mm 0 W/m2
21:39 63.3 °F /  17.4 °C 54.9 °F /  12.7 °C 30.38in /  1028.7hPa WNW 1.7mph /  2.7km/h 4mph /  6.4km/h 74% 0.00in /  0mm 0 W/m2
21:44 63.1 °F /  17.3 °C 54.9 °F /  12.7 °C 30.38in /  1028.7hPa WNW 1.6mph /  2.6km/h 4mph /  6.4km/h 74.6% 0.00in /  0mm 0 W/m2
21:49 63.1 °F /  17.3 °C 55 °F /  12.8 °C 30.38in /  1028.7hPa WNW 0.9mph /  1.4km/h 3mph /  4.8km/h 75% 0.00in /  0mm 0 W/m2
21:54 63 °F /  17.2 °C 54.9 °F /  12.7 °C 30.38in /  1028.7hPa WNW 1mph /  1.6km/h 3mph /  4.8km/h 75% 0.00in /  0mm 0 W/m2
21:59 62.8 °F /  17.1 °C 55 °F /  12.8 °C 30.38in /  1028.7hPa WNW 0.4mph /  0.6km/h 2mph /  3.2km/h 76% 0.00in /  0mm 0 W/m2
22:04 62.6 °F /  17 °C 54.8 °F /  12.7 °C 30.38in /  1028.7hPa WNW 0.9mph /  1.4km/h 2mph /  3.2km/h 76% 0.00in /  0mm 0 W/m2
22:09 62.3 °F /  16.8 °C 54.6 °F /  12.6 °C 30.38in /  1028.7hPa WNW 1.2mph /  1.9km/h 2mph /  3.2km/h 76% 0.00in /  0mm 0 W/m2
22:14 62.2 °F /  16.8 °C 54.7 °F /  12.6 °C 30.38in /  1028.7hPa WNW 0.8mph /  1.3km/h 3mph /  4.8km/h 76.8% 0.00in /  0mm 0 W/m2
22:19 62 °F /  16.7 °C 54.7 °F /  12.6 °C 30.38in /  1028.7hPa WNW 1.3mph /  2.1km/h 3mph /  4.8km/h 77% 0.00in /  0mm 0 W/m2
22:24 61.7 °F /  16.5 °C 54.5 °F /  12.5 °C 30.38in /  1028.7hPa WNW 1.2mph /  1.9km/h 3mph /  4.8km/h 77% 0.00in /  0mm 0 W/m2
22:29 61.5 °F /  16.4 °C 54.3 °F /  12.4 °C 30.38in /  1028.7hPa WNW 0.4mph /  0.6km/h 2mph /  3.2km/h 77% 0.00in /  0mm 0 W/m2
22:34 61.3 °F /  16.3 °C 54.1 °F /  12.3 °C 30.38in /  1028.7hPa WNW 0.5mph /  0.8km/h 2mph /  3.2km/h 77% 0.00in /  0mm 0 W/m2
22:39 61.3 °F /  16.3 °C 54.1 °F /  12.3 °C 30.38in /  1028.7hPa WNW 0.4mph /  0.6km/h 2mph /  3.2km/h 77% 0.00in /  0mm 0 W/m2
22:44 61.2 °F /  16.2 °C 54 °F /  12.2 °C 30.38in /  1028.7hPa WNW 0.8mph /  1.3km/h 2mph /  3.2km/h 77% 0.00in /  0mm 0 W/m2
22:49 60.9 °F /  16.1 °C 53.7 °F /  12.1 °C 30.38in /  1028.7hPa WNW 0.4mph /  0.6km/h 1mph /  1.6km/h 77% 0.00in /  0mm 0 W/m2
22:54 60.6 °F /  15.9 °C 53.4 °F /  11.9 °C 30.37in /  1028.3hPa Calm   1mph /  1.6km/h 77% 0.00in /  0mm 0 W/m2
22:59 60.4 °F /  15.8 °C 53.2 °F /  11.8 °C 30.38in /  1028.7hPa Calm     77% 0.00in /  0mm 0 W/m2
23:04 60.4 °F /  15.8 °C 53.2 °F /  11.8 °C 30.38in /  1028.7hPa Calm   1mph /  1.6km/h 77% 0.00in /  0mm 0 W/m2
23:09 60.4 °F /  15.8 °C 53.2 °F /  11.8 °C 30.38in /  1028.7hPa WNW 0.7mph /  1.1km/h 2mph /  3.2km/h 77% 0.00in /  0mm 0 W/m2
23:14 60.3 °F /  15.7 °C 53.1 °F /  11.7 °C 30.38in /  1028.7hPa WNW 0.2mph /  0.3km/h 1mph /  1.6km/h 77% 0.00in /  0mm 0 W/m2
23:19 60.3 °F /  15.7 °C 53.1 °F /  11.7 °C 30.38in /  1028.7hPa Calm   1mph /  1.6km/h 77% 0.00in /  0mm 0 W/m2
23:24 60.3 °F /  15.7 °C 53.1 °F /  11.7 °C 30.38in /  1028.7hPa WNW 0.2mph /  0.3km/h 2mph /  3.2km/h 77% 0.00in /  0mm 0 W/m2
23:29 60.1 °F /  15.6 °C 52.9 °F /  11.6 °C 30.38in /  1028.7hPa Calm   1mph /  1.6km/h 77% 0.00in /  0mm 0 W/m2
23:34 60.1 °F /  15.6 °C 52.9 °F /  11.6 °C 30.38in /  1028.7hPa WNW 0.5mph /  0.8km/h 2mph /  3.2km/h 77% 0.00in /  0mm 0 W/m2
23:39 59.8 °F /  15.4 °C 52.6 °F /  11.4 °C 30.37in /  1028.3hPa WNW 0.2mph /  0.3km/h 2mph /  3.2km/h 77% 0.00in /  0mm 0 W/m2
23:44 59.7 °F /  15.4 °C 52.6 °F /  11.4 °C 30.38in /  1028.7hPa Calm   1mph /  1.6km/h 77.2% 0.00in /  0mm 0 W/m2
23:49 59.6 °F /  15.3 °C 52.8 °F /  11.6 °C 30.38in /  1028.7hPa WNW 0.4mph /  0.6km/h 2mph /  3.2km/h 78% 0.00in /  0mm 0 W/m2
23:54 59.5 °F /  15.3 °C 52.9 °F /  11.6 °C 30.38in /  1028.7hPa WNW 1.3mph /  2.1km/h 2mph /  3.2km/h 78.8% 0.00in /  0mm 0 W/m2
23:59 59.2 °F /  15.1 °C 53 °F /  11.7 °C 30.37in /  1028.3hPa WNW 0.8mph /  1.3km/h 2mph /  3.2km/h 79.6% 0.00in /  0mm 0 W/m2
Bath Spa Weather
Compliments of Weather Underground - 2 mb